Latest Weather Observations for Robe Airport

IDS60801

Issued at 8:31 pm CST Tuesday 28 June 2016 (issued every 30 minutes, with the page automatically refreshed every 10 minutes)

About weather observations | Map of weather stations | Latest weather observations for SA | Other Formats
Station Details ID: 026105 Name: ROBE AIRFIELD Lat: -37.18 Lon: 139.81 Height: 3.0 m
Data from the previous 72 hours. | See also: Recent months at Robe Airport
Date/Time
CST
Temp
°C
App
Temp
°C
Dew
Point
°C
Rel
Hum
%
Delta-T
°C
Wind Press
QNH
hPa
Press
MSL
hPa
Rain since
9am
mm
Dir  Spd
km/h
Gust
km/h
Spd
kts
Gust
kts
28/08:30pm 11.8 9.8 11.5 98 0.2 WNW 13 20 7 11 1025.2 1025.2 15.0
28/08:00pm 12.2 12.0 11.7 97 0.3 WNW 4 7 2 4 1025.0 1025.0 12.4
28/07:30pm 12.4 11.7 11.9 97 0.3 W 7 17 4 9 1024.8 1024.8 12.0
28/07:00pm 12.3 11.5 11.8 97 0.3 WNW 7 9 4 5 1024.6 1024.6 12.0
28/06:30pm 12.5 11.4 12.0 97 0.3 NW 9 15 5 8 1024.4 1024.4 12.0
28/06:00pm 12.7 9.7 11.8 94 0.5 NNW 19 26 10 14 1024.0 1024.0 7.4
28/05:30pm 12.5 10.2 11.7 95 0.4 NW 15 20 8 11 1024.0 1024.0 7.4
28/05:00pm 12.8 11.3 11.9 94 0.5 NNW 11 19 6 10 1023.7 1023.7 6.8
28/04:30pm 13.2 10.4 11.4 89 0.9 NW 17 26 9 14 1023.7 1023.7 6.8
28/04:00pm 12.9 10.7 12.1 95 0.4 NW 15 22 8 12 1023.6 1023.6 6.8
28/03:30pm 13.9 11.4 12.3 90 0.9 NW 17 24 9 13 1023.4 1023.4 4.4
28/03:00pm 13.8 11.2 12.0 89 1.0 NW 17 24 9 13 1023.3 1023.3 4.4
28/02:30pm 13.0 10.0 12.1 94 0.5 WNW 19 28 10 15 1023.5 1023.5 4.2
28/02:00pm 14.4 12.4 12.6 89 1.0 WNW 15 26 8 14 1023.5 1023.5 3.0
28/01:30pm 13.3 12.0 12.4 94 0.5 WNW 11 17 6 9 1023.5 1023.5 3.0
28/01:00pm 12.6 9.2 11.3 92 0.7 WNW 20 37 11 20 1023.8 1023.8 2.2
28/12:30pm 13.1 10.7 11.5 90 0.8 WNW 15 26 8 14 1023.9 1023.9 1.4
28/12:00pm 14.1 11.5 12.0 87 1.1 NW 17 26 9 14 1023.9 1023.9 0.2
28/11:30am 13.6 10.1 11.0 84 1.4 NW 20 28 11 15 1024.0 1024.0 0.2
28/11:00am 15.5 12.2 12.8 84 1.5 NW 22 30 12 16 1024.3 1024.3 0.0
28/10:30am 14.7 12.5 12.2 85 1.4 NW 15 22 8 12 1024.3 1024.3 0.0
28/10:00am 12.7 10.1 10.6 87 1.1 NW 15 20 8 11 1024.1 1024.1 0.0
28/09:30am 13.1 10.8 11.7 91 0.7 NW 15 19 8 10 1024.0 1024.0 0.0
28/09:00am 13.5 11.9 12.7 95 0.4 NW 13 17 7 9 1023.6 1023.6 4.4
28/08:30am 12.9 9.2 11.5 91 0.7 NW 22 41 12 22 1023.4 1023.4 3.6
28/08:00am 12.9 10.7 12.0 94 0.5 NW 15 22 8 12 1022.9 1022.9 2.4
28/07:30am 12.6 10.2 11.5 93 0.6 NW 15 19 8 10 1022.6 1022.6 2.4
28/07:00am 12.4 10.7 11.3 93 0.6 NW 11 15 6 8 1022.3 1022.3 2.4
28/06:30am 12.6 11.3 11.3 92 0.7 NW 9 13 5 7 1021.9 1021.9 2.4
28/06:00am 12.8 11.3 11.9 94 0.5 WNW 11 15 6 8 1021.7 1021.7 2.4
28/05:30am 12.8 11.6 11.7 93 0.6 NW 9 15 5 8 1021.5 1021.5 2.4
28/05:00am 12.6 10.8 10.7 88 1.0 W 11 15 6 8 1021.2 1021.2 2.4
28/04:30am 12.6 11.0 11.7 94 0.5 WNW 11 17 6 9 1020.8 1020.8 2.4
28/04:00am 12.7 10.8 11.8 94 0.5 NW 13 20 7 11 1020.8 1020.8 2.4
28/03:30am 12.5 10.2 11.6 94 0.5 NW 15 20 8 11 1020.8 1020.8 2.4
28/03:00am 12.3 9.9 11.4 94 0.5 NW 15 24 8 13 1021.0 1021.0 2.4
28/02:34am 12.2 7.3 11.3 94 0.5 NW 28 46 15 25 1021.2 1021.2 2.0
28/02:30am 12.1 7.1 10.8 92 0.7 WNW 28 48 15 26 1021.2 1021.2 2.0
28/02:24am 12.1 7.8 10.7 91 0.7 NW 24 48 13 26 1021.2 1021.2 2.0
28/02:00am 12.2 9.8 11.3 94 0.5 NW 15 22 8 12 1021.0 1021.0 2.0
28/01:30am 12.0 8.2 11.2 95 0.4 NW 22 32 12 17 1021.1 1021.1 2.0
28/01:00am 12.7 9.5 11.8 94 0.5 NNW 20 24 11 13 1020.8 1020.8 1.4
28/12:30am 12.6 9.4 11.3 92 0.7 NNW 19 24 10 13 1021.0 1021.0 1.2
28/12:00am 12.1 9.4 10.5 90 0.8 NW 15 22 8 12 1021.1 1021.1 1.2
 
Date/Time
CST
Temp
°C
App
Temp
°C
Dew
Point
°C
Rel
Hum
%
Delta-T
°C
Wind Press
QNH
hPa
Press
MSL
hPa
Rain since
9am
mm
Dir  Spd
km/h
Gust
km/h
Spd
kts
Gust
kts
27/11:30pm 12.1 9.9 10.7 91 0.7 NW 13 20 7 11 1021.0 1021.0 1.2
27/11:00pm 11.6 9.6 10.0 90 0.8 NW 11 17 6 9 1021.0 1021.0 1.2
27/10:30pm 12.2 9.2 10.8 91 0.7 WNW 17 30 9 16 1021.2 1021.2 1.2
27/10:00pm 10.9 10.6 10.0 94 0.5 NW 2 6 1 3 1020.9 1020.9 1.2
27/09:30pm 11.4 9.8 10.3 93 0.6 WNW 9 13 5 7 1021.0 1021.0 1.2
27/09:00pm 11.2 9.9 10.0 92 0.6 WNW 7 9 4 5 1021.1 1021.1 1.0
27/08:30pm 12.6 10.3 9.1 79 1.8 WNW 11 17 6 9 1020.9 1020.9 0.0
27/08:00pm 11.8 9.8 8.8 82 1.5 WNW 9 15 5 8 1020.7 1020.7 0.0
27/07:30pm 12.1 10.3 9.3 83 1.4 WNW 9 13 5 7 1020.5 1020.5 0.0
27/07:00pm 12.9 10.5 8.6 75 2.1 WNW 11 19 6 10 1020.3 1020.3 0.0
27/06:30pm 12.8 10.0 10.0 83 1.4 NW 15 20 8 11 1020.1 1020.1 0.0
27/06:00pm 12.4 10.0 8.7 78 1.8 WNW 11 17 6 9 1019.7 1019.7 0.0
27/05:30pm 11.6 9.9 8.5 81 1.5 WNW 7 11 4 6 1019.6 1019.6 0.0
27/05:00pm 12.2 9.8 8.7 79 1.7 WNW 11 15 6 8 1019.4 1019.4 0.0
27/04:30pm 12.5 10.5 8.8 78 1.8 NW 9 11 5 6 1019.3 1019.3 0.0
27/04:00pm 13.9 11.4 8.3 69 2.8 NW 11 17 6 9 1019.2 1019.2 0.0
27/03:30pm 14.5 12.0 8.0 65 3.2 WNW 11 19 6 10 1019.1 1019.1 0.0
27/03:00pm 14.6 11.6 7.9 64 3.3 WNW 13 22 7 12 1018.9 1018.9 0.0
27/02:30pm 14.6 11.0 6.9 60 3.7 W 15 24 8 13 1018.8 1018.8 0.0
27/02:00pm 15.2 11.0 5.7 53 4.5 W 17 33 9 18 1018.6 1018.6 0.0
27/01:30pm 15.2 11.9 6.5 56 4.2 W 13 22 7 12 1018.6 1018.6 0.0
27/01:00pm 15.4 11.7 6.4 55 4.4 W 15 30 8 16 1018.6 1018.6 0.0
27/12:30pm 14.8 10.5 5.3 53 4.5 W 17 26 9 14 1018.8 1018.8 0.0
27/12:00pm 14.7 12.0 7.5 62 3.5 WNW 11 22 6 12 1019.1 1019.1 0.0
27/11:30am 13.6 12.3 9.1 74 2.3 W 6 9 3 5 1019.5 1019.5 0.0
27/11:00am 13.1 9.6 8.6 74 2.2 W 17 30 9 16 1019.5 1019.5 0.0
27/10:30am 14.1 12.2 7.6 65 3.2 W 7 15 4 8 1019.4 1019.4 0.0
27/10:00am 12.2 11.0 8.1 76 2.0 W 4 6 2 3 1019.3 1019.3 0.0
27/09:30am 12.1 9.8 7.6 74 2.2 W 9 22 5 12 1019.1 1019.1 0.0
27/09:00am 10.1 9.9 8.9 92 0.6 CALM 0 0 0 0 1018.7 1018.7 6.6
27/08:30am 8.6 8.1 7.7 94 0.4 CALM 0 0 0 0 1018.6 1018.6 6.6
27/08:00am 5.5 4.3 4.5 93 0.4 CALM 0 0 0 0 1018.2 1018.2 6.6
27/07:30am 6.2 5.0 4.8 91 0.6 CALM 0 0 0 0 1017.9 1017.9 6.6
27/07:00am 7.6 6.1 5.2 85 1.1 SSW 2 4 1 2 1017.4 1017.4 6.6
27/06:30am 8.8 6.5 5.9 82 1.3 SSW 7 9 4 5 1017.2 1017.2 6.6
27/06:00am 9.7 6.7 6.1 78 1.7 SSW 11 17 6 9 1016.9 1016.9 6.6
27/05:30am 10.2 8.0 7.8 85 1.2 S 9 15 5 8 1016.5 1016.5 6.6
27/05:00am 10.4 7.6 8.5 88 0.9 SSW 13 19 7 10 1016.0 1016.0 6.6
27/04:30am 9.9 6.9 7.8 87 1.0 SSW 13 15 7 8 1015.7 1015.7 6.6
27/04:00am 9.8 8.9 9.3 97 0.2 WSW 4 11 2 6 1015.4 1015.4 6.6
27/03:30am 10.0 10.0 9.7 98 0.2 CALM 0 0 0 0 1015.3 1015.3 6.4
27/03:00am 9.5 8.5 9.0 97 0.2 W 4 6 2 3 1015.2 1015.2 6.4
27/02:30am 10.6 9.9 10.1 97 0.3 W 4 7 2 4 1015.0 1015.0 6.4
27/02:00am 10.7 9.6 9.9 95 0.4 WNW 6 9 3 5 1015.0 1015.0 6.2
27/01:30am 11.2 8.9 10.3 94 0.5 NNW 13 20 7 11 1014.8 1014.8 5.8
27/01:00am 11.1 7.8 9.5 90 0.8 NNW 17 26 9 14 1014.7 1014.7 5.8
27/12:30am 10.4 6.8 8.5 88 0.9 NW 17 26 9 14 1014.8 1014.8 5.8
27/12:00am 10.5 7.2 9.4 93 0.5 NW 17 24 9 13 1014.9 1014.9 5.6
 
Date/Time
CST
Temp
°C
App
Temp
°C
Dew
Point
°C
Rel
Hum
%
Delta-T
°C
Wind Press
QNH
hPa
Press
MSL
hPa
Rain since
9am
mm
Dir  Spd
km/h
Gust
km/h
Spd
kts
Gust
kts
26/11:30pm 10.4 9.3 9.8 96 0.3 NW 6 9 3 5 1015.0 1015.0 2.8
26/11:00pm 9.5 7.4 8.4 93 0.5 N 9 11 5 6 1015.0 1015.0 0.8
26/10:30pm 9.3 6.3 7.9 91 0.7 NNE 13 15 7 8 1014.9 1014.9 0.4
26/10:00pm 10.1 6.7 7.7 85 1.2 N 15 20 8 11 1014.8 1014.8 0.2
26/09:30pm 9.4 6.7 7.5 88 0.9 NNE 11 13 6 7 1014.8 1014.8 0.2
26/09:00pm 9.6 7.3 7.4 86 1.0 N 9 13 5 7 1014.8 1014.8 0.2
26/08:30pm 11.3 8.4 8.2 81 1.5 N 13 22 7 12 1014.8 1014.8 0.2
26/08:00pm 10.8 7.9 8.2 84 1.3 N 13 17 7 9 1014.8 1014.8 0.2
26/07:30pm 10.7 7.8 8.1 84 1.3 N 13 20 7 11 1014.8 1014.8 0.2
26/07:00pm 10.8 7.5 8.2 84 1.3 N 15 19 8 10 1014.8 1014.8 0.2
26/06:30pm 10.8 7.3 8.6 86 1.1 N 17 20 9 11 1014.8 1014.8 0.2
26/06:00pm 10.9 6.9 8.3 84 1.3 N 19 24 10 13 1014.7 1014.7 0.0
26/05:30pm 11.3 6.9 7.6 78 1.8 N 20 28 11 15 1014.5 1014.5 0.0
26/05:00pm 12.0 7.6 7.5 74 2.2 NNW 20 28 11 15 1014.3 1014.3 0.0
26/04:30pm 11.8 7.5 7.7 76 2.0 N 20 28 11 15 1014.3 1014.3 0.0
26/04:00pm 11.9 7.5 7.6 75 2.1 N 20 30 11 16 1014.3 1014.3 0.0
26/03:30pm 12.0 6.8 7.3 73 2.3 N 24 35 13 19 1014.4 1014.4 0.0
26/03:00pm 12.5 6.2 7.6 72 2.4 NNW 30 37 16 20 1014.3 1014.3 0.0
26/02:30pm 12.4 6.8 7.1 70 2.6 NNW 26 39 14 21 1014.4 1014.4 0.0
26/02:00pm 12.6 7.1 7.7 72 2.4 NNW 26 37 14 20 1014.6 1014.6 0.0
26/01:30pm 13.7 8.9 9.0 73 2.4 N 24 33 13 18 1014.7 1014.7 0.0
26/01:00pm 12.2 7.3 8.3 77 1.9 N 24 32 13 17 1015.0 1015.0 0.0
26/12:30pm 12.2 6.0 7.7 74 2.2 N 30 39 16 21 1015.6 1015.6 0.0
26/12:00pm 11.6 6.1 7.5 76 2.0 N 26 35 14 19 1015.9 1015.9 0.0
26/11:30am 11.2 5.2 7.1 76 2.0 N 28 41 15 22 1016.4 1016.4 0.0
26/11:00am 11.2 5.9 6.9 75 2.0 N 24 37 13 20 1016.8 1016.8 0.0
26/10:30am 10.5 5.1 6.5 76 1.9 N 24 32 13 17 1017.0 1017.0 0.0
26/10:00am 10.5 5.0 6.1 74 2.0 N 24 32 13 17 1017.3 1017.3 0.0
26/09:30am 9.7 4.5 5.7 76 1.8 N 22 32 12 17 1017.1 1017.1 0.0
26/09:00am 8.8 4.2 5.4 79 1.5 N 19 24 10 13 1017.2 1017.2 0.0
26/08:30am 8.3 4.3 4.9 79 1.5 N 15 22 8 12 1017.1 1017.1 0.0
26/08:00am 7.6 3.5 4.6 81 1.3 N 15 20 8 11 1017.2 1017.2 0.0
26/07:30am 7.4 3.3 4.4 81 1.3 NNE 15 19 8 10 1017.4 1017.4 0.0
26/07:00am 7.3 2.9 4.6 83 1.2 N 17 22 9 12 1017.5 1017.5 0.0
26/06:30am 7.1 2.6 4.1 81 1.3 N 17 22 9 12 1017.6 1017.6 0.0
26/06:00am 6.9 1.9 3.7 80 1.4 N 19 26 10 14 1017.9 1017.9 0.0
26/05:30am 6.9 2.3 3.5 79 1.4 N 17 24 9 13 1017.9 1017.9 0.0
26/05:00am 6.7 1.6 3.3 79 1.4 NNE 19 24 10 13 1017.8 1017.8 0.0
26/04:30am 6.4 1.7 3.4 81 1.3 N 17 24 9 13 1017.9 1017.9 0.0
26/04:00am 6.5 1.8 3.3 80 1.3 NNE 17 22 9 12 1017.8 1017.8 0.0
26/03:30am 6.7 1.5 3.3 79 1.4 N 20 24 11 13 1018.3 1018.3 0.0
26/03:00am 6.9 1.4 3.9 81 1.3 N 22 28 12 15 1018.7 1018.7 0.0
26/02:30am 6.9 2.0 4.2 83 1.2 N 19 26 10 14 1018.9 1018.9 0.0
26/02:00am 7.2 2.4 4.9 85 1.0 N 19 26 10 14 1019.1 1019.1 0.0
26/01:30am 6.7 3.1 4.9 88 0.8 N 13 19 7 10 1019.2 1019.2 0.0
26/01:00am 7.0 3.4 5.2 88 0.8 NNE 13 17 7 9 1019.6 1019.6 0.0
26/12:30am 5.8 2.5 4.3 90 0.6 N 11 15 6 8 1019.8 1019.8 0.0
26/12:00am 5.0 1.9 3.7 91 0.5 NNE 9 11 5 6 1019.9 1019.9 0.0
 
Date/Time
CST
Temp
°C
App
Temp
°C
Dew
Point
°C
Rel
Hum
%
Delta-T
°C
Wind Press
QNH
hPa
Press
MSL
hPa
Rain since
9am
mm
Dir  Spd
km/h
Gust
km/h
Spd
kts
Gust
kts
25/11:30pm 5.7 2.6 3.7 87 0.8 NNE 9 11 5 6 1019.9 1019.9 0.0
25/11:00pm 6.4 3.1 4.4 87 0.9 NNE 11 13 6 7 1019.9 1019.9 0.0
25/10:30pm 6.4 3.4 4.2 86 0.9 NNE 9 11 5 6 1020.4 1020.4 0.0
25/10:00pm 7.9 4.7 5.2 83 1.2 NNE 11 13 6 7 1020.6 1020.6 0.0
25/09:30pm 8.7 6.1 6.2 84 1.1 NNE 9 11 5 6 1020.9 1020.9 0.0
25/09:00pm 8.9 6.3 6.2 83 1.2 NNE 9 13 5 7 1021.3 1021.3 0.0

Other Formats:

Comma delimited format used in spreadsheet applications
http://www.bom.gov.au/fwo/IDS60801/IDS60801.95816.axf

JavaScript Object Notation format (JSON) in row-major order
http://www.bom.gov.au/fwo/IDS60801/IDS60801.95816.json